createdAt,value
2023-01-03T00:00:02.081Z,96.34
2023-01-03T00:05:04.117Z,95.73
2023-01-03T00:10:09.101Z,93.78
2023-01-03T00:15:11.260Z,93.89
2023-01-03T00:20:13.265Z,93.80
2023-01-03T00:25:15.394Z,94.45
2023-01-03T00:30:17.136Z,94.59
2023-01-03T00:35:18.765Z,94.54
2023-01-03T00:40:20.404Z,95.08
2023-01-03T00:45:25.445Z,95.57
2023-01-03T00:50:27.518Z,95.68
2023-01-03T00:55:29.169Z,95.38
2023-01-03T01:00:30.827Z,95.21
2023-01-03T01:05:32.523Z,95.41
2023-01-03T01:10:34.301Z,95.46
2023-01-03T01:15:36.000Z,96.07
2023-01-03T01:20:39.764Z,94.10
2023-01-03T01:25:41.398Z,93.67
2023-01-03T01:30:43.108Z,93.75
2023-01-03T01:35:44.806Z,93.45
2023-01-03T01:40:46.785Z,92.12
2023-01-03T01:45:48.655Z,91.39
2023-01-03T01:50:54.786Z,92.15
2023-01-03T01:56:03.546Z,91.65
2023-01-03T02:01:09.149Z,89.19
2023-01-03T02:06:14.326Z,89.17
2023-01-03T02:11:47.996Z,88.86
2023-01-03T02:17:11.849Z,88.93
2023-01-03T02:22:47.511Z,89.40
2023-01-03T02:27:58.203Z,88.66
2023-01-03T02:33:20.867Z,88.91
2023-01-03T02:38:31.527Z,90.17
2023-01-03T02:43:42.629Z,88.66
2023-01-03T02:48:55.390Z,90.71
2023-01-03T02:53:59.731Z,90.13
2023-01-03T02:59:08.704Z,88.35
2023-01-03T03:04:12.220Z,88.31
2023-01-03T03:09:13.953Z,88.47
2023-01-03T03:14:28.771Z,87.83
2023-01-03T03:19:52.088Z,86.30
2023-01-03T03:24:57.082Z,87.36
2023-01-03T03:30:02.740Z,87.96
2023-01-03T03:35:09.241Z,87.81
2023-01-03T03:40:30.125Z,88.18
2023-01-03T03:45:41.651Z,86.62
2023-01-03T03:50:54.006Z,86.70
2023-01-03T03:56:07.411Z,87.73
2023-01-03T04:01:12.477Z,86.26
2023-01-03T04:06:31.005Z,85.14
2023-01-03T04:11:32.750Z,84.89
2023-01-03T04:16:34.509Z,83.63
2023-01-03T04:21:36.755Z,83.52
2023-01-03T04:26:38.462Z,83.72
2023-01-03T04:31:40.616Z,82.77
2023-01-03T04:36:42.251Z,83.16
2023-01-03T04:41:43.879Z,83.21
2023-01-03T04:46:52.301Z,82.18
2023-01-03T04:51:54.563Z,82.19
2023-01-03T04:56:56.206Z,81.71
2023-01-03T05:01:58.050Z,81.00
2023-01-03T05:06:59.877Z,80.92
2023-01-03T05:12:01.582Z,79.93
2023-01-03T05:17:03.295Z,79.13
2023-01-03T05:22:23.708Z,79.33
2023-01-03T05:27:25.376Z,79.93
2023-01-03T05:32:29.105Z,79.42
2023-01-03T05:37:30.705Z,79.13
2023-01-03T05:42:32.395Z,79.49
2023-01-03T05:47:34.017Z,79.80
2023-01-03T05:52:35.775Z,80.65
2023-01-03T05:57:37.561Z,80.61
2023-01-03T06:02:39.402Z,81.38
2023-01-03T06:07:41.060Z,80.63
2023-01-03T06:12:42.703Z,80.30
2023-01-03T06:17:58.227Z,80.55
2023-01-03T06:23:00.026Z,80.70
2023-01-03T06:28:01.782Z,81.07
2023-01-03T06:33:03.406Z,80.96
2023-01-03T06:38:05.114Z,80.73
2023-01-03T06:43:06.812Z,80.47
2023-01-03T06:48:28.486Z,80.71
2023-01-03T06:53:36.671Z,79.94
2023-01-03T06:58:38.595Z,81.47
2023-01-03T07:03:40.541Z,80.86
2023-01-03T07:08:47.862Z,81.14
2023-01-03T07:13:59.824Z,81.24
2023-01-03T07:19:02.347Z,82.00
2023-01-03T07:24:05.800Z,82.15
2023-01-03T07:29:09.555Z,82.88
2023-01-03T07:34:11.229Z,82.64
2023-01-03T07:39:12.833Z,82.95
2023-01-03T07:44:14.443Z,83.25
2023-01-03T07:49:16.104Z,83.84
2023-01-03T07:54:17.759Z,84.15
2023-01-03T07:59:19.518Z,85.37
2023-01-03T08:04:21.239Z,85.43
2023-01-03T08:09:41.455Z,85.12
2023-01-03T08:14:43.077Z,85.52
2023-01-03T08:19:45.948Z,84.20
2023-01-03T08:24:47.866Z,83.33
2023-01-03T08:29:49.579Z,83.80
2023-01-03T08:34:51.504Z,82.56
2023-01-03T08:40:01.528Z,82.64
2023-01-03T08:45:09.277Z,81.83
2023-01-03T08:50:12.741Z,81.71
2023-01-03T08:55:14.595Z,81.03
2023-01-03T09:00:16.439Z,79.79
2023-01-03T09:05:18.219Z,80.98
2023-01-03T09:10:20.027Z,80.47
2023-01-03T09:15:22.669Z,78.86
2023-01-03T09:20:24.384Z,79.02
2023-01-03T09:25:25.949Z,79.02
2023-01-03T09:30:27.638Z,78.67
2023-01-03T09:35:29.294Z,77.23
2023-01-03T09:40:36.196Z,76.57
2023-01-03T09:45:39.824Z,77.59
2023-01-03T09:51:14.973Z,74.74
2023-01-03T09:56:25.080Z,74.50
2023-01-03T10:01:51.747Z,72.97
2023-01-03T10:07:23.603Z,74.19
2023-01-03T10:12:43.793Z,72.11
2023-01-03T10:18:17.653Z,70.98
2023-01-03T10:23:19.550Z,71.02
2023-01-03T10:28:27.411Z,70.08
2023-01-03T10:33:42.685Z,70.13
2023-01-03T10:38:51.571Z,69.56
2023-01-03T10:44:00.154Z,67.13
2023-01-03T10:49:28.854Z,67.69
2023-01-03T10:54:46.533Z,67.19
2023-01-03T10:59:51.249Z,65.74
2023-01-03T11:05:13.288Z,64.15
2023-01-03T11:10:19.077Z,64.30
2023-01-03T11:15:38.273Z,63.22
2023-01-03T11:21:01.647Z,60.70
2023-01-03T11:26:33.780Z,62.06
2023-01-03T11:31:51.258Z,59.88
2023-01-03T11:37:00.596Z,58.59
2023-01-03T11:42:25.826Z,57.75
2023-01-03T11:47:27.355Z,55.36
2023-01-03T11:52:29.520Z,57.53
2023-01-03T11:57:46.915Z,59.09
2023-01-03T12:03:26.281Z,61.51
2023-01-03T12:09:13.075Z,62.22
2023-01-03T12:14:24.086Z,62.54
2023-01-03T12:19:28.627Z,61.29
2023-01-03T12:24:42.843Z,62.30
2023-01-03T12:29:49.136Z,62.66
2023-01-03T12:35:00.802Z,64.50
2023-01-03T12:40:14.756Z,65.05
2023-01-03T12:45:44.918Z,66.32
2023-01-03T12:50:52.087Z,65.79
2023-01-03T12:55:53.534Z,64.86
2023-01-03T13:01:05.041Z,64.05
2023-01-03T13:06:13.959Z,65.01
2023-01-03T13:11:28.925Z,65.23
2023-01-03T13:16:36.627Z,65.58
2023-01-03T13:21:53.430Z,66.33
2023-01-03T13:27:20.465Z,67.40
2023-01-03T13:32:22.035Z,67.18
2023-01-03T13:37:46.396Z,67.24
2023-01-03T13:42:49.359Z,66.87
2023-01-03T13:47:53.932Z,68.88
2023-01-03T13:53:04.045Z,68.07
2023-01-03T13:58:24.227Z,68.68
2023-01-03T14:03:59.938Z,69.14
2023-01-03T14:09:24.381Z,65.49
2023-01-03T14:14:30.755Z,64.71
2023-01-03T14:19:35.724Z,64.77
2023-01-03T14:24:51.714Z,64.98
2023-01-03T14:29:55.394Z,65.55
2023-01-03T14:34:57.089Z,66.51
2023-01-03T14:40:19.711Z,66.94
2023-01-03T14:45:21.517Z,68.14
2023-01-03T14:50:27.826Z,67.89
2023-01-03T14:55:32.867Z,70.40
2023-01-03T15:00:36.407Z,70.19
2023-01-03T15:05:40.688Z,70.80
2023-01-03T15:10:51.325Z,71.46
2023-01-03T15:15:58.899Z,72.54
2023-01-03T15:21:03.206Z,72.39
2023-01-03T15:26:19.620Z,71.06
2023-01-03T15:31:24.150Z,72.04
2023-01-03T15:36:29.059Z,71.48
2023-01-03T15:42:43.051Z,71.30
2023-01-03T15:47:34.636Z,72.32
2023-01-03T15:52:36.609Z,72.12
2023-01-03T15:57:38.683Z,72.47
2023-01-03T16:02:40.717Z,72.88
2023-01-03T16:07:42.549Z,74.13
2023-01-03T16:12:44.434Z,74.38
2023-01-03T16:17:46.471Z,75.14
2023-01-03T16:23:01.675Z,75.82
2023-01-03T16:28:10.189Z,75.96
2023-01-03T16:33:19.981Z,76.74
2023-01-03T16:38:25.418Z,77.28
2023-01-03T16:43:27.500Z,77.45
2023-01-03T16:48:38.089Z,77.65
2023-01-03T16:53:41.046Z,78.20
2023-01-03T16:58:43.415Z,77.53
2023-01-03T17:03:45.300Z,75.55
2023-01-03T17:08:47.229Z,76.07
2023-01-03T17:13:49.253Z,77.17
2023-01-03T17:18:53.411Z,77.35
2023-01-03T17:24:01.873Z,77.19
2023-01-03T17:29:06.012Z,75.10
2023-01-03T17:34:22.619Z,75.61
2023-01-03T17:39:26.053Z,75.85
2023-01-03T17:44:27.701Z,75.12
2023-01-03T17:49:29.385Z,75.39
2023-01-03T17:54:36.239Z,76.42
2023-01-03T17:59:37.922Z,75.94
2023-01-03T18:05:13.272Z,75.47
2023-01-03T18:10:01.625Z,76.25
2023-01-03T18:15:03.736Z,74.83
2023-01-03T18:20:06.503Z,74.94
2023-01-03T18:25:23.560Z,74.59
2023-01-03T18:30:25.198Z,73.90
2023-01-03T18:35:33.897Z,73.82
2023-01-03T18:40:39.574Z,74.15
2023-01-03T18:45:42.012Z,74.40
2023-01-03T18:50:45.583Z,75.19
2023-01-03T18:55:48.513Z,74.44
2023-01-03T19:00:50.199Z,74.73
2023-01-03T19:05:55.201Z,75.37
2023-01-03T19:11:06.124Z,76.15
2023-01-03T19:16:07.952Z,75.81
2023-01-03T19:21:13.187Z,75.99
2023-01-03T19:26:29.029Z,75.74
2023-01-03T19:31:42.579Z,76.23
2023-01-03T19:36:45.376Z,76.71
2023-01-03T19:42:16.734Z,77.09
2023-01-03T19:47:20.593Z,76.55
2023-01-03T19:52:22.386Z,76.23
2023-01-03T19:57:30.182Z,75.48
2023-01-03T20:02:40.944Z,75.60
2023-01-03T20:07:43.857Z,74.94
2023-01-03T20:12:46.732Z,74.38
2023-01-03T20:17:48.601Z,73.79
2023-01-03T20:23:06.327Z,73.77
2023-01-03T20:28:16.884Z,74.70
2023-01-03T20:33:18.555Z,76.06
2023-01-03T20:38:27.372Z,76.63
2023-01-03T20:43:29.292Z,77.64
2023-01-03T20:48:31.078Z,76.64
2023-01-03T20:53:32.723Z,73.47
2023-01-03T20:58:34.370Z,72.79
2023-01-03T21:03:37.966Z,73.94
2023-01-03T21:08:54.661Z,75.00
2023-01-03T21:13:58.477Z,73.18
2023-01-03T21:19:16.238Z,72.88
2023-01-03T21:24:20.216Z,72.96
2023-01-03T21:29:22.116Z,71.23
2023-01-03T21:34:23.863Z,71.58
2023-01-03T21:39:25.720Z,72.01
2023-01-03T21:44:27.430Z,72.00
2023-01-03T21:49:29.267Z,71.91
2023-01-03T21:54:30.897Z,73.15
2023-01-03T21:59:32.645Z,74.69
2023-01-03T22:04:34.645Z,75.62
2023-01-03T22:09:55.011Z,75.60
2023-01-03T22:14:56.827Z,74.77
2023-01-03T22:19:58.497Z,73.54
2023-01-03T22:25:00.129Z,73.25
2023-01-03T22:30:03.188Z,72.89
2023-01-03T22:35:05.109Z,72.80
2023-01-03T22:40:08.969Z,72.61
2023-01-03T22:45:10.915Z,71.98
2023-01-03T22:50:12.654Z,71.98
2023-01-03T22:55:14.336Z,72.49
2023-01-03T23:00:16.187Z,72.74
2023-01-03T23:05:18.066Z,73.10
2023-01-03T23:10:19.762Z,74.06
2023-01-03T23:15:21.529Z,75.65
2023-01-03T23:20:29.923Z,77.21
2023-01-03T23:25:33.324Z,77.61
2023-01-03T23:30:36.034Z,77.82
2023-01-03T23:35:39.034Z,77.57
2023-01-03T23:40:42.017Z,78.39
2023-01-03T23:45:43.747Z,77.71
2023-01-03T23:50:45.439Z,78.11
2023-01-03T23:55:47.226Z,77.17
